Time;durP1;ratioP1;P1;durP2;ratioP2;P2;SDS_P1;SDS_P2;PMS_P1;PMS_P2;Temp;Humidity;BMP_temperature;BMP_pressure;BME280_temperature;BME280_humidity;BME280_pressure;Samples;Min_cycle;Max_cycle;Signal;HPM_P1;HPM_P2
2022/10/02 00:01:11;;;;;;;5.90;5.60;;;;;;;;;;4995161;28;20049;-69
2022/10/02 00:03:40;;;;;;;6.28;5.97;;;;;;;;;;5004469;28;20300;-69
2022/10/02 00:06:13;;;;;;;;;;;;;;;;;;4999016;28;20085;-70
2022/10/02 00:08:42;;;;;;;6.07;5.78;;;;;;;;;;5004635;28;19920;-70
2022/10/02 00:11:19;;;;;;;5.97;5.68;;;;;;;;;;4993717;28;20026;-70
2022/10/02 00:13:52;;;;;;;6.22;5.93;;;;;;;;;;4989933;28;20129;-69
2022/10/02 00:16:23;;;;;;;6.10;5.80;;;;;;;;;;4993314;28;20030;-69
2022/10/02 00:18:49;;;;;;;6.68;6.38;;;;;;;;;;5004262;28;20069;-70
2022/10/02 00:21:44;;;;;;;6.03;5.72;;;;;;;;;;4999847;28;20056;-70
2022/10/02 00:24:16;;;;;;;6.28;5.97;;;;;;;;;;5003522;28;20065;-69
2022/10/02 00:27:03;;;;;;;6.43;6.13;;;;;;;;;;5006234;28;20033;-70
2022/10/02 00:29:58;;;;;;;6.47;6.18;;;;;;;;;;5003492;28;20038;-70
2022/10/02 00:32:24;;;;;;;5.93;5.63;;;;;;;;;;5003171;28;20096;-70
2022/10/02 00:35:03;;;;;;;5.93;5.63;;;;;;;;;;5003902;28;20038;-70
2022/10/02 00:38:01;;;;;;;6.68;6.38;;;;;;;;;;4999049;28;20114;-69
2022/10/02 00:40:52;;;;;;;6.38;6.07;;;;;;;;;;5002597;28;20038;-70
2022/10/02 00:43:20;;;;;;;6.47;6.18;;;;;;;;;;4993211;28;20038;-70
2022/10/02 00:46:12;;;;;;;6.40;6.10;;;;;;;;;;5001664;28;20038;-70
2022/10/02 00:48:49;;;;;;;6.43;6.13;;;;;;;;;;4987138;28;20073;-70
2022/10/02 00:51:39;;;;;;;6.00;5.70;;;;;;;;;;4997601;28;20033;-70
2022/10/02 00:54:13;;;;;;;6.30;6.00;;;;;;;;;;4992795;28;20456;-70
2022/10/02 00:57:08;;;;;;;6.10;5.80;;;;;;;;;;5003670;28;20069;-70
2022/10/02 01:00:14;;;;;;;6.22;5.93;;;;;;;;;;4995786;28;20038;-70
2022/10/02 01:03:09;;;;;;;6.00;5.70;;;;;;;;;;4990481;28;20064;-70
2022/10/02 01:05:35;;;;;;;5.80;5.50;;;;;;;;;;4998410;28;20045;-69
2022/10/02 01:08:01;;;;;;;6.07;5.78;;;;;;;;;;4996115;28;20037;-70
2022/10/02 01:10:27;;;;;;;5.97;5.68;;;;;;;;;;5000897;28;20034;-70
2022/10/02 01:12:56;;;;;;;5.68;5.45;;;;;;;;;;5002378;28;20133;-70
2022/10/02 01:15:27;;;;;;;5.85;5.55;;;;;;;;;;4999885;28;20022;-70
2022/10/02 01:17:54;;;;;;;6.32;6.03;;;;;;;;;;5001406;28;20049;-70
2022/10/02 01:20:30;;;;;;;5.43;5.22;;;;;;;;;;5001388;28;20049;-70
2022/10/02 01:23:23;;;;;;;5.85;5.55;;;;;;;;;;4997904;28;20406;-70
2022/10/02 01:25:49;;;;;;;6.47;6.18;;;;;;;;;;4994813;28;20046;-70
2022/10/02 01:28:15;;;;;;;6.28;5.97;;;;;;;;;;5004725;28;20052;-70
2022/10/02 01:30:44;;;;;;;6.70;6.40;;;;;;;;;;4999582;28;20041;-69
2022/10/02 01:33:11;;;;;;;;;;;;;;;;;;4999918;28;20037;-70
2022/10/02 01:35:38;;;;;;;6.45;6.15;;;;;;;;;;5000649;28;19917;-70
2022/10/02 01:38:11;;;;;;;6.30;6.00;;;;;;;;;;4999828;28;20026;-70
2022/10/02 01:40:38;;;;;;;6.32;6.03;;;;;;;;;;4994664;28;20034;-70
2022/10/02 01:43:12;;;;;;;6.10;5.80;;;;;;;;;;4991264;28;20305;-70
2022/10/02 01:45:44;;;;;;;6.30;6.00;;;;;;;;;;4994145;28;20030;-70
2022/10/02 01:48:27;;;;;;;6.10;5.80;;;;;;;;;;5002914;28;20022;-70
2022/10/02 01:51:32;;;;;;;6.90;6.60;;;;;;;;;;4998419;28;20043;-70
2022/10/02 01:54:06;;;;;;;6.25;5.95;;;;;;;;;;4974035;28;20061;-70
2022/10/02 01:56:50;;;;;;;6.38;6.07;;;;;;;;;;4994807;28;20537;-70
2022/10/02 01:59:24;;;;;;;6.15;5.85;;;;;;;;;;5000304;28;20053;-70
2022/10/02 02:02:17;;;;;;;6.50;6.20;;;;;;;;;;5001045;28;20044;-70
2022/10/02 02:04:58;;;;;;;6.03;5.72;;;;;;;;;;5001742;28;20424;-70
2022/10/02 02:07:52;;;;;;;6.53;6.22;;;;;;;;;;4999570;28;20061;-69
2022/10/02 02:10:27;;;;;;;6.78;6.47;;;;;;;;;;5002523;28;20197;-70
2022/10/02 02:13:02;;;;;;;6.45;6.15;;;;;;;;;;5007865;28;20052;-70
2022/10/02 02:15:40;;;;;;;5.85;5.55;;;;;;;;;;5003453;28;20038;-69
2022/10/02 02:18:22;;;;;;;6.50;6.20;;;;;;;;;;4993832;28;20393;-69
2022/10/02 02:20:52;;;;;;;6.50;6.20;;;;;;;;;;5002784;28;20030;-70
2022/10/02 02:23:23;;;;;;;6.38;6.07;;;;;;;;;;4998659;28;20030;-70
2022/10/02 02:25:57;;;;;;;5.95;5.65;;;;;;;;;;4996900;28;20509;-70
2022/10/02 02:28:24;;;;;;;6.72;6.43;;;;;;;;;;5001708;28;20687;-70
2022/10/02 02:30:53;;;;;;;6.60;6.30;;;;;;;;;;5010330;28;20076;-70
2022/10/02 02:33:36;;;;;;;7.00;6.70;;;;;;;;;;5003168;28;20072;-69
2022/10/02 02:36:08;;;;;;;6.47;6.18;;;;;;;;;;5002776;28;20052;-69
2022/10/02 02:38:41;;;;;;;6.60;6.30;;;;;;;;;;5003572;28;20493;-70
2022/10/02 02:41:14;;;;;;;6.70;6.40;;;;;;;;;;5003222;28;20497;-70
2022/10/02 02:43:48;;;;;;;6.20;5.90;;;;;;;;;;5005705;28;20038;-70
2022/10/02 02:46:23;;;;;;;5.97;5.68;;;;;;;;;;5002330;28;20101;-70
2022/10/02 02:48:54;;;;;;;6.07;5.78;;;;;;;;;;4996906;28;20314;-70
2022/10/02 02:51:26;;;;;;;6.32;6.03;;;;;;;;;;4997678;28;20034;-70
2022/10/02 02:54:02;;;;;;;6.45;6.15;;;;;;;;;;5002051;28;20048;-70
2022/10/02 02:56:31;;;;;;;6.25;5.95;;;;;;;;;;5005454;28;20112;-70
2022/10/02 02:59:08;;;;;;;6.40;6.10;;;;;;;;;;5001652;28;20397;-70
2022/10/02 03:01:34;;;;;;;6.60;6.30;;;;;;;;;;5007759;28;20469;-70
2022/10/02 03:04:00;;;;;;;6.53;6.22;;;;;;;;;;4998926;28;20135;-69
2022/10/02 03:06:30;;;;;;;6.07;5.78;;;;;;;;;;4999580;28;20073;-69
2022/10/02 03:08:56;;;;;;;6.07;5.78;;;;;;;;;;4999509;28;20038;-70
2022/10/02 03:11:50;;;;;;;6.88;6.57;;;;;;;;;;5001097;28;20394;-70
2022/10/02 03:14:47;;;;;;;6.20;5.90;;;;;;;;;;4997481;28;20541;-70
2022/10/02 03:17:48;;;;;;;6.25;5.95;;;;;;;;;;4999976;28;20045;-70
2022/10/02 03:20:33;;;;;;;6.10;5.80;;;;;;;;;;5000408;28;20133;-70
2022/10/02 03:23:13;;;;;;;6.30;6.00;;;;;;;;;;4968681;28;20046;-70
2022/10/02 03:25:51;;;;;;;6.50;6.20;;;;;;;;;;5006206;28;20406;-70
2022/10/02 03:28:35;;;;;;;6.40;6.10;;;;;;;;;;4998842;28;20042;-70
2022/10/02 03:31:02;;;;;;;6.55;6.25;;;;;;;;;;4998864;28;20034;-69
2022/10/02 03:33:30;;;;;;;7.75;7.32;;;;;;;;;;5001202;28;20121;-70
2022/10/02 03:35:56;;;;;;;6.32;6.03;;;;;;;;;;5002483;28;20448;-70
2022/10/02 03:38:23;;;;;;;5.95;5.65;;;;;;;;;;4993370;28;20395;-70
2022/10/02 03:40:51;;;;;;;6.22;5.93;;;;;;;;;;5003640;28;20042;-69
2022/10/02 03:43:23;;;;;;;6.55;6.25;;;;;;;;;;5003473;28;20062;-70
2022/10/02 03:45:48;;;;;;;6.53;6.22;;;;;;;;;;4998405;28;20056;-68
2022/10/02 03:48:14;;;;;;;6.28;5.97;;;;;;;;;;4998514;28;20038;-68
2022/10/02 03:50:40;;;;;;;5.90;5.60;;;;;;;;;;5003082;28;20041;-68
2022/10/02 03:53:13;;;;;;;6.45;6.15;;;;;;;;;;4996716;28;20033;-68
2022/10/02 03:55:44;;;;;;;6.47;6.18;;;;;;;;;;4995771;28;20310;-68
2022/10/02 03:58:13;;;;;;;6.15;5.85;;;;;;;;;;5005100;28;20033;-68
2022/10/02 04:00:50;;;;;;;6.03;5.72;;;;;;;;;;5002003;28;20060;-68
2022/10/02 04:03:24;;;;;;;6.18;5.88;;;;;;;;;;4989547;28;20037;-68
2022/10/02 04:05:59;;;;;;;6.53;6.22;;;;;;;;;;5002785;28;20073;-68
2022/10/02 04:08:36;;;;;;;6.20;5.90;;;;;;;;;;4997838;28;20061;-68
2022/10/02 04:11:22;;;;;;;5.90;5.60;;;;;;;;;;5005047;28;20038;-68
2022/10/02 04:14:15;;;;;;;6.53;6.22;;;;;;;;;;4993153;28;20108;-68
2022/10/02 04:17:01;;;;;;;6.45;6.15;;;;;;;;;;4993803;28;20034;-68
2022/10/02 04:19:48;;;;;;;5.97;5.68;;;;;;;;;;5005685;28;20034;-68
2022/10/02 04:22:40;;;;;;;5.90;5.60;;;;;;;;;;5001298;28;20092;-68
2022/10/02 04:25:12;;;;;;;6.55;6.25;;;;;;;;;;5002385;28;20473;-68
2022/10/02 04:27:49;;;;;;;6.40;6.10;;;;;;;;;;5000523;28;20033;-68
2022/10/02 04:30:17;;;;;;;6.20;5.90;;;;;;;;;;4996535;28;20040;-68
2022/10/02 04:32:43;;;;;;;6.40;6.10;;;;;;;;;;4989139;28;20038;-68
2022/10/02 04:35:30;;;;;;;6.32;6.03;;;;;;;;;;4998457;28;20037;-68
2022/10/02 04:38:14;;;;;;;6.20;5.90;;;;;;;;;;5002904;28;20038;-68
2022/10/02 04:41:15;;;;;;;6.50;6.20;;;;;;;;;;4999411;28;20038;-68
2022/10/02 04:43:46;;;;;;;6.55;6.25;;;;;;;;;;4997737;28;20282;-68
2022/10/02 04:46:49;;;;;;;6.55;6.25;;;;;;;;;;5000537;28;20046;-68
2022/10/02 04:49:42;;;;;;;6.80;6.50;;;;;;;;;;4996382;28;20038;-68
2022/10/02 04:52:42;;;;;;;6.40;6.10;;;;;;;;;;4998170;28;20092;-68
2022/10/02 04:55:51;;;;;;;6.28;5.97;;;;;;;;;;4999754;28;20026;-68
2022/10/02 04:58:31;;;;;;;6.22;5.93;;;;;;;;;;4970327;28;20103;-68
2022/10/02 05:01:20;;;;;;;5.97;5.68;;;;;;;;;;4997828;28;20125;-68
2022/10/02 05:03:54;;;;;;;5.90;5.60;;;;;;;;;;5004049;28;20045;-68
2022/10/02 05:06:35;;;;;;;6.45;6.15;;;;;;;;;;5000597;28;20050;-68
2022/10/02 05:09:19;;;;;;;6.38;6.07;;;;;;;;;;4996557;28;20065;-69
2022/10/02 05:12:05;;;;;;;6.20;5.90;;;;;;;;;;4999042;28;20038;-69
2022/10/02 05:15:11;;;;;;;6.22;5.93;;;;;;;;;;5007887;28;20061;-69
2022/10/02 05:17:55;;;;;;;6.22;5.93;;;;;;;;;;5002454;28;20033;-69
2022/10/02 05:20:27;;;;;;;6.57;6.28;;;;;;;;;;4998326;28;20038;-69
2022/10/02 05:22:59;;;;;;;6.30;6.00;;;;;;;;;;4999277;28;20047;-69
2022/10/02 05:25:34;;;;;;;6.28;5.97;;;;;;;;;;5001933;28;20411;-69
2022/10/02 05:28:21;;;;;;;6.20;5.90;;;;;;;;;;5003582;28;20065;-69
2022/10/02 05:30:52;;;;;;;6.57;6.28;;;;;;;;;;5004701;28;20072;-69
2022/10/02 05:33:55;;;;;;;6.20;5.90;;;;;;;;;;5001784;28;20057;-69
2022/10/02 05:36:40;;;;;;;6.30;6.00;;;;;;;;;;4998311;28;20102;-69
2022/10/02 05:39:12;;;;;;;6.50;6.20;;;;;;;;;;5000250;28;20050;-69
2022/10/02 05:42:17;;;;;;;6.32;6.03;;;;;;;;;;5006302;28;20398;-69
2022/10/02 05:44:49;;;;;;;6.00;5.70;;;;;;;;;;5008636;28;20038;-69
2022/10/02 05:47:29;;;;;;;6.10;5.80;;;;;;;;;;5005712;28;20049;-69
2022/10/02 05:50:15;;;;;;;6.80;6.50;;;;;;;;;;5003531;28;20026;-69
2022/10/02 05:52:59;;;;;;;6.18;5.88;;;;;;;;;;4994945;28;20116;-69
2022/10/02 05:55:54;;;;;;;6.60;6.30;;;;;;;;;;5004812;28;20058;-69
2022/10/02 05:58:19;;;;;;;7.22;6.90;;;;;;;;;;4997005;28;20048;-69
2022/10/02 06:00:55;;;;;;;6.95;6.65;;;;;;;;;;5007897;28;20121;-69
2022/10/02 06:03:32;;;;;;;6.40;6.10;;;;;;;;;;4999016;28;20376;-69
2022/10/02 06:06:24;;;;;;;6.63;6.32;;;;;;;;;;5002146;28;20111;-69
2022/10/02 06:08:57;;;;;;;6.82;6.53;;;;;;;;;;5007502;28;20531;-69
2022/10/02 06:11:28;;;;;;;6.70;6.40;;;;;;;;;;4999793;28;20062;-69
2022/10/02 06:14:09;;;;;;;6.68;6.38;;;;;;;;;;5006670;28;20046;-69
2022/10/02 06:16:40;;;;;;;6.00;5.70;;;;;;;;;;5001101;28;20048;-69
2022/10/02 06:19:26;;;;;;;6.25;5.95;;;;;;;;;;5002680;28;20243;-69
2022/10/02 06:21:57;;;;;;;6.70;6.40;;;;;;;;;;4997625;28;20142;-69
2022/10/02 06:24:32;;;;;;;6.47;6.18;;;;;;;;;;5007579;28;20021;-69
2022/10/02 06:27:34;;;;;;;6.28;5.97;;;;;;;;;;5002861;28;20075;-68
2022/10/02 06:30:03;;;;;;;5.88;5.57;;;;;;;;;;4974756;28;20489;-68
2022/10/02 06:32:36;;;;;;;6.13;5.82;;;;;;;;;;5001154;28;20065;-68
2022/10/02 06:35:11;;;;;;;6.10;5.80;;;;;;;;;;4999474;28;20030;-68
2022/10/02 06:38:21;;;;;;;6.40;6.10;;;;;;;;;;5001505;28;20045;-68
2022/10/02 06:41:00;;;;;;;6.05;5.75;;;;;;;;;;4994460;28;20274;-69
2022/10/02 06:43:42;;;;;;;6.43;6.13;;;;;;;;;;5005791;28;20512;-69
2022/10/02 06:46:26;;;;;;;5.97;5.68;;;;;;;;;;5003156;28;20034;-69
2022/10/02 06:49:08;;;;;;;6.28;5.97;;;;;;;;;;5000315;28;20046;-68
2022/10/02 06:52:29;;;;;;;6.47;6.18;;;;;;;;;;4997642;28;20070;-70
2022/10/02 06:55:25;;;;;;;6.63;6.32;;;;;;;;;;4944751;28;20523;-68
2022/10/02 06:58:01;;;;;;;6.13;5.82;;;;;;;;;;4941979;29;20561;-68
2022/10/02 07:00:26;;;;;;;6.35;6.05;;;;;;;;;;4949253;28;20115;-68
2022/10/02 07:03:15;;;;;;;5.95;5.65;;;;;;;;;;4934208;29;20523;-69
2022/10/02 07:05:44;;;;;;;6.32;6.03;;;;;;;;;;4953537;28;20491;-69
2022/10/02 07:08:26;;;;;;;6.10;5.80;;;;;;;;;;4944215;28;20043;-68
2022/10/02 07:11:02;;;;;;;6.60;6.30;;;;;;;;;;4947658;28;20614;-68
2022/10/02 07:13:39;;;;;;;6.50;6.20;;;;;;;;;;4949181;28;20067;-69
2022/10/02 07:16:26;;;;;;;6.32;6.03;;;;;;;;;;4948770;28;20046;-69
2022/10/02 07:19:13;;;;;;;6.65;6.35;;;;;;;;;;4933909;28;20501;-69
2022/10/02 07:21:59;;;;;;;6.25;5.95;;;;;;;;;;4951551;28;20070;-69
2022/10/02 07:24:48;;;;;;;6.22;5.93;;;;;;;;;;4953181;28;20202;-69
2022/10/02 07:27:22;;;;;;;6.20;5.90;;;;;;;;;;4946425;28;20044;-69
2022/10/02 07:30:02;;;;;;;7.10;6.70;;;;;;;;;;4946707;28;20074;-69
2022/10/02 07:32:39;;;;;;;6.50;6.20;;;;;;;;;;4998197;28;20041;-69
2022/10/02 07:35:29;;;;;;;6.10;5.80;;;;;;;;;;4999590;28;20470;-69
2022/10/02 07:38:03;;;;;;;6.30;6.00;;;;;;;;;;5002042;28;20041;-69
2022/10/02 07:40:34;;;;;;;5.97;5.68;;;;;;;;;;5004985;28;20033;-69
2022/10/02 07:43:15;;;;;;;6.03;5.72;;;;;;;;;;5007151;28;20121;-69
2022/10/02 07:45:58;;;;;;;6.40;6.10;;;;;;;;;;4997147;28;20026;-69
2022/10/02 07:48:44;;;;;;;5.80;5.50;;;;;;;;;;4991862;28;20041;-70
2022/10/02 07:51:48;;;;;;;5.95;5.65;;;;;;;;;;4994006;28;20034;-70
2022/10/02 07:54:45;;;;;;;5.85;5.55;;;;;;;;;;4994617;28;20509;-70
2022/10/02 07:57:36;;;;;;;5.78;5.47;;;;;;;;;;4992966;28;20034;-70
2022/10/02 08:00:12;;;;;;;5.47;5.28;;;;;;;;;;4999238;28;20085;-70
2022/10/02 08:02:47;;;;;;;6.18;5.88;;;;;;;;;;4999573;28;20552;-70
2022/10/02 08:05:18;;;;;;;6.13;5.82;;;;;;;;;;4999849;28;20034;-70
2022/10/02 08:07:49;;;;;;;6.28;5.97;;;;;;;;;;4995360;28;20045;-70
2022/10/02 08:10:19;;;;;;;6.80;6.50;;;;;;;;;;5001985;28;20030;-70
2022/10/02 08:13:06;;;;;;;6.35;6.05;;;;;;;;;;4997840;28;20044;-70
2022/10/02 08:15:37;;;;;;;6.35;6.05;;;;;;;;;;5004859;28;20253;-70
2022/10/02 08:18:26;;;;;;;6.60;6.30;;;;;;;;;;4995051;28;20038;-69
2022/10/02 08:20:51;;;;;;;6.53;6.22;;;;;;;;;;4996925;28;20104;-69
2022/10/02 08:23:53;;;;;;;7.10;6.80;;;;;;;;;;5000498;28;20061;-69
2022/10/02 08:26:28;;;;;;;7.65;7.25;;;;;;;;;;4957805;28;20055;-69
2022/10/02 08:29:20;;;;;;;6.80;6.50;;;;;;;;;;4933320;28;20039;-69
2022/10/02 08:31:45;;;;;;;7.43;7.03;;;;;;;;;;4951503;28;20037;-69
2022/10/02 08:34:18;;;;;;;7.32;6.93;;;;;;;;;;4949307;28;20046;-70
2022/10/02 08:37:12;;;;;;;6.85;6.55;;;;;;;;;;4956012;28;20039;-69
2022/10/02 08:40:15;;;;;;;7.32;6.93;;;;;;;;;;4896258;28;20060;-69
2022/10/02 08:42:58;;;;;;;7.60;7.20;;;;;;;;;;4950417;28;20503;-70
2022/10/02 08:45:52;;;;;;;7.00;6.70;;;;;;;;;;4950003;28;20562;-69
2022/10/02 08:48:55;;;;;;;7.55;7.15;;;;;;;;;;4912784;28;20618;-69
2022/10/02 08:51:40;;;;;;;7.03;6.72;;;;;;;;;;4950216;28;20098;-69
2022/10/02 08:54:35;;;;;;;7.10;6.80;;;;;;;;;;4945018;28;20082;-69
2022/10/02 08:57:38;;;;;;;7.75;7.35;;;;;;;;;;4948193;28;20122;-69
2022/10/02 09:00:18;;;;;;;7.40;7.00;;;;;;;;;;4949760;28;20410;-70
2022/10/02 09:03:16;;;;;;;6.82;6.53;;;;;;;;;;4980226;28;20050;-69
2022/10/02 09:06:19;;;;;;;7.63;7.22;;;;;;;;;;4953725;28;20052;-70
2022/10/02 09:08:50;;;;;;;7.20;6.90;;;;;;;;;;5004030;28;20034;-69
2022/10/02 09:11:36;;;;;;;7.55;7.15;;;;;;;;;;5003691;28;20233;-69
2022/10/02 09:14:29;;;;;;;7.30;6.90;;;;;;;;;;5002544;28;20041;-70
2022/10/02 09:17:29;;;;;;;7.00;6.70;;;;;;;;;;5001052;28;20040;-70
2022/10/02 09:20:14;;;;;;;7.35;6.95;;;;;;;;;;4992394;28;20050;-70
2022/10/02 09:23:10;;;;;;;7.28;6.90;;;;;;;;;;4997225;28;20180;-69
2022/10/02 09:26:27;;;;;;;7.05;6.75;;;;;;;;;;4999761;28;20049;-69
2022/10/02 09:29:41;;;;;;;7.07;6.75;;;;;;;;;;4958439;28;20054;-69
2022/10/02 09:32:09;;;;;;;7.30;6.90;;;;;;;;;;4998823;28;20049;-70
2022/10/02 09:34:57;;;;;;;7.57;7.17;;;;;;;;;;4993666;28;20097;-70
2022/10/02 09:37:58;;;;;;;6.95;6.65;;;;;;;;;;4995592;28;20033;-70
2022/10/02 09:40:45;;;;;;;6.90;6.60;;;;;;;;;;4994317;28;20042;-70
2022/10/02 09:43:47;;;;;;;6.68;6.38;;;;;;;;;;4995855;28;20043;-70
2022/10/02 09:46:41;;;;;;;7.10;6.80;;;;;;;;;;5001666;28;20034;-70
2022/10/02 09:49:41;;;;;;;7.35;6.95;;;;;;;;;;4999085;28;20061;-70
2022/10/02 09:52:22;;;;;;;7.75;7.35;;;;;;;;;;4990858;28;20053;-70
2022/10/02 09:55:20;;;;;;;7.45;7.05;;;;;;;;;;5005232;28;20034;-70
2022/10/02 09:57:55;;;;;;;7.35;6.95;;;;;;;;;;4993867;28;20042;-70
2022/10/02 10:00:47;;;;;;;7.03;6.72;;;;;;;;;;4989928;28;20038;-70
2022/10/02 10:03:50;;;;;;;6.90;6.60;;;;;;;;;;4997551;28;20062;-70
2022/10/02 10:06:22;;;;;;;7.10;6.80;;;;;;;;;;4986967;28;20749;-70
2022/10/02 10:08:59;;;;;;;7.20;6.80;;;;;;;;;;4996515;28;20121;-70
2022/10/02 10:11:47;;;;;;;7.30;6.90;;;;;;;;;;4987849;28;20041;-70
2022/10/02 10:14:37;;;;;;;6.88;6.57;;;;;;;;;;4992555;28;20488;-70
2022/10/02 10:17:19;;;;;;;7.10;6.80;;;;;;;;;;4992473;28;20038;-69
2022/10/02 10:20:23;;;;;;;7.00;6.70;;;;;;;;;;4994230;28;20077;-70
2022/10/02 10:22:59;;;;;;;7.38;6.97;;;;;;;;;;4993906;28;20030;-70
2022/10/02 10:25:53;;;;;;;7.00;6.70;;;;;;;;;;4991170;28;20197;-69
2022/10/02 10:28:41;;;;;;;6.90;6.60;;;;;;;;;;5003327;28;20120;-70
2022/10/02 10:31:25;;;;;;;6.50;6.20;;;;;;;;;;4997080;28;20228;-70
2022/10/02 10:34:09;;;;;;;5.97;5.68;;;;;;;;;;5004036;28;20041;-70
2022/10/02 10:39:48;;;;;;;6.45;6.15;;;;;;;;;;5007060;28;20029;-70
2022/10/02 10:42:19;;;;;;;6.47;6.18;;;;;;;;;;5006166;28;20044;-70
2022/10/02 10:45:01;;;;;;;6.93;6.63;;;;;;;;;;5008249;28;20033;-70
2022/10/02 10:47:38;;;;;;;6.75;6.45;;;;;;;;;;4999563;28;20128;-70
2022/10/02 10:50:22;;;;;;;6.75;6.45;;;;;;;;;;5000006;28;20113;-70
2022/10/02 10:53:02;;;;;;;6.70;6.40;;;;;;;;;;4998488;28;20522;-70
2022/10/02 10:55:28;;;;;;;7.07;6.78;;;;;;;;;;5000907;28;20030;-69
2022/10/02 10:58:31;;;;;;;6.70;6.40;;;;;;;;;;5002108;28;20444;-70
2022/10/02 11:01:17;;;;;;;6.78;6.47;;;;;;;;;;5007181;28;20038;-70
2022/10/02 11:04:18;;;;;;;6.45;6.15;;;;;;;;;;5000887;28;20045;-70
2022/10/02 11:07:21;;;;;;;6.95;6.65;;;;;;;;;;4999492;28;20058;-70
2022/10/02 11:09:50;;;;;;;7.00;6.70;;;;;;;;;;4997626;28;20037;-71
2022/10/02 11:12:46;;;;;;;7.07;6.78;;;;;;;;;;4991385;28;20080;-71
2022/10/02 11:15:51;;;;;;;6.93;6.63;;;;;;;;;;5005227;28;20065;-70
2022/10/02 11:18:33;;;;;;;6.78;6.47;;;;;;;;;;4993016;28;20066;-71
2022/10/02 11:21:17;;;;;;;6.75;6.45;;;;;;;;;;4997232;28;20121;-71
2022/10/02 11:23:49;;;;;;;6.30;6.00;;;;;;;;;;4992259;28;20052;-71
2022/10/02 11:26:39;;;;;;;6.60;6.30;;;;;;;;;;5005534;28;20049;-71
2022/10/02 11:29:32;;;;;;;6.38;6.07;;;;;;;;;;5007751;28;20038;-71
2022/10/02 11:32:13;;;;;;;6.57;6.28;;;;;;;;;;4993048;28;20122;-71
2022/10/02 11:34:50;;;;;;;6.35;6.05;;;;;;;;;;4997037;28;20393;-71
2022/10/02 11:37:23;;;;;;;5.93;5.63;;;;;;;;;;4991595;28;20445;-71
2022/10/02 11:40:15;;;;;;;6.07;5.78;;;;;;;;;;4992729;28;20606;-71
2022/10/02 11:42:56;;;;;;;6.18;5.88;;;;;;;;;;4999028;28;20065;-71
2022/10/02 11:45:54;;;;;;;6.30;6.00;;;;;;;;;;4995319;28;20478;-71
2022/10/02 11:48:44;;;;;;;6.10;5.80;;;;;;;;;;5002471;28;20057;-71
2022/10/02 11:51:28;;;;;;;5.97;5.68;;;;;;;;;;4998015;28;20513;-71
2022/10/02 11:54:23;;;;;;;7.45;7.05;;;;;;;;;;4993799;28;20042;-71
2022/10/02 11:57:13;;;;;;;6.45;6.15;;;;;;;;;;4995052;28;20049;-71
2022/10/02 12:00:04;;;;;;;6.63;6.32;;;;;;;;;;4985829;28;20076;-71
2022/10/02 12:02:51;;;;;;;6.40;6.10;;;;;;;;;;5002769;28;20074;-71
2022/10/02 12:05:56;;;;;;;6.45;6.15;;;;;;;;;;4999423;28;20509;-71
2022/10/02 12:08:53;;;;;;;6.50;6.20;;;;;;;;;;4994811;28;20042;-71
2022/10/02 12:11:39;;;;;;;6.10;5.80;;;;;;;;;;4998195;28;20172;-71
2022/10/02 12:14:22;;;;;;;6.10;5.80;;;;;;;;;;4994687;28;20026;-71
2022/10/02 12:17:03;;;;;;;6.13;5.82;;;;;;;;;;4993672;28;20523;-70
2022/10/02 12:29:40;;;;;;;6.63;6.32;;;;;;;;;;4998810;28;20046;-71
2022/10/02 12:32:06;;;;;;;6.55;6.25;;;;;;;;;;4995096;28;20092;-71
2022/10/02 12:34:47;;;;;;;6.95;6.65;;;;;;;;;;4998793;28;20409;-71
2022/10/02 12:37:30;;;;;;;7.05;6.75;;;;;;;;;;4998777;28;20060;-71
2022/10/02 12:40:05;;;;;;;7.03;6.72;;;;;;;;;;5000807;28;20037;-71
2022/10/02 12:42:46;;;;;;;6.30;6.00;;;;;;;;;;4997204;28;20099;-71
2022/10/02 12:45:33;;;;;;;6.47;6.18;;;;;;;;;;4995250;28;20050;-71
2022/10/02 12:48:17;;;;;;;6.80;6.50;;;;;;;;;;4992972;28;20049;-71
2022/10/02 12:51:06;;;;;;;6.90;6.60;;;;;;;;;;4997470;28;20069;-72
2022/10/02 12:54:09;;;;;;;6.70;6.40;;;;;;;;;;5001068;28;20214;-71
2022/10/02 12:56:56;;;;;;;6.93;6.63;;;;;;;;;;4994715;28;20042;-71
2022/10/02 13:00:02;;;;;;;6.53;6.22;;;;;;;;;;4999958;28;20076;-71
2022/10/02 13:02:56;;;;;;;6.93;6.63;;;;;;;;;;4996372;28;20510;-71
2022/10/02 13:05:41;;;;;;;6.50;6.20;;;;;;;;;;4997336;28;20121;-71
2022/10/02 13:08:36;;;;;;;6.30;6.00;;;;;;;;;;4999502;28;20088;-71
2022/10/02 13:11:17;;;;;;;6.40;6.10;;;;;;;;;;4999755;28;20034;-71
2022/10/02 13:14:16;;;;;;;6.25;5.95;;;;;;;;;;5000286;28;20072;-71
2022/10/02 13:16:48;;;;;;;7.13;6.82;;;;;;;;;;4998505;28;20114;-71
2022/10/02 13:19:16;;;;;;;6.72;6.43;;;;;;;;;;4996387;28;20061;-71
2022/10/02 13:22:00;;;;;;;6.82;6.53;;;;;;;;;;4996785;28;20552;-71
2022/10/02 13:24:42;;;;;;;7.10;6.80;;;;;;;;;;4993300;28;20042;-71
2022/10/02 13:27:43;;;;;;;6.93;6.63;;;;;;;;;;4999663;28;20116;-71
2022/10/02 13:30:21;;;;;;;7.40;7.00;;;;;;;;;;4996466;28;20049;-71
2022/10/02 13:33:08;;;;;;;6.90;6.60;;;;;;;;;;5001506;28;20038;-71
2022/10/02 13:35:37;;;;;;;6.80;6.50;;;;;;;;;;4993341;28;20073;-70
2022/10/02 13:38:05;;;;;;;7.00;6.70;;;;;;;;;;4999447;28;20100;-70
2022/10/02 13:40:52;;;;;;;7.20;6.90;;;;;;;;;;5014496;28;20034;-71
2022/10/02 13:43:50;;;;;;;6.70;6.40;;;;;;;;;;4994495;28;20077;-71
2022/10/02 13:46:45;;;;;;;7.78;7.38;;;;;;;;;;4988227;28;20220;-70
2022/10/02 13:49:52;;;;;;;7.47;7.07;;;;;;;;;;4997727;28;20513;-70
2022/10/02 13:52:29;;;;;;;7.28;6.90;;;;;;;;;;5002093;28;20540;-71
2022/10/02 13:55:06;;;;;;;7.72;7.32;;;;;;;;;;4996172;28;20038;-70
2022/10/02 13:58:04;;;;;;;8.02;7.63;;;;;;;;;;5000506;28;20069;-70
2022/10/02 14:00:36;;;;;;;7.18;6.88;;;;;;;;;;4997622;28;20160;-71
2022/10/02 14:03:12;;;;;;;7.40;7.00;;;;;;;;;;4997610;28;20092;-70
2022/10/02 14:05:54;;;;;;;7.57;7.18;;;;;;;;;;5000315;28;20077;-70
2022/10/02 14:08:49;;;;;;;6.90;6.60;;;;;;;;;;4998219;28;20068;-70
2022/10/02 14:11:48;;;;;;;6.80;6.50;;;;;;;;;;4994843;28;20053;-70
2022/10/02 14:14:20;;;;;;;6.75;6.45;;;;;;;;;;5001431;28;20030;-70
2022/10/02 14:17:10;;;;;;;6.90;6.60;;;;;;;;;;5000092;28;20117;-70
2022/10/02 14:20:02;;;;;;;6.80;6.50;;;;;;;;;;5001104;28;20041;-70
2022/10/02 14:22:47;;;;;;;7.05;6.75;;;;;;;;;;5002335;28;20029;-70
2022/10/02 14:25:54;;;;;;;7.07;6.78;;;;;;;;;;5006015;28;20076;-70
2022/10/02 14:28:22;;;;;;;7.22;6.90;;;;;;;;;;4977044;28;20058;-70
2022/10/02 14:31:09;;;;;;;7.23;6.93;;;;;;;;;;5002940;28;20488;-70
2022/10/02 14:33:52;;;;;;;6.75;6.45;;;;;;;;;;4988083;28;20306;-70
2022/10/02 14:36:53;;;;;;;7.18;6.88;;;;;;;;;;5000171;28;20041;-71
2022/10/02 14:39:37;;;;;;;6.97;6.68;;;;;;;;;;4998051;28;20042;-70
2022/10/02 14:42:31;;;;;;;7.18;6.88;;;;;;;;;;5007977;28;20026;-70
2022/10/02 14:45:20;;;;;;;8.00;7.60;;;;;;;;;;5006933;28;20044;-70
2022/10/02 14:48:20;;;;;;;7.40;7.03;;;;;;;;;;4998815;28;20030;-71
2022/10/02 14:51:19;;;;;;;7.20;6.90;;;;;;;;;;4995109;28;20037;-70
2022/10/02 14:53:57;;;;;;;8.15;7.75;;;;;;;;;;5006588;28;20283;-71
2022/10/02 14:56:28;;;;;;;7.93;7.53;;;;;;;;;;5003864;28;20073;-70
2022/10/02 14:59:09;;;;;;;7.88;7.47;;;;;;;;;;4999503;28;20087;-71
2022/10/02 15:01:58;;;;;;;7.82;7.43;;;;;;;;;;5004742;28;20448;-71
2022/10/02 15:04:26;;;;;;;7.97;7.57;;;;;;;;;;4997718;28;20042;-71
2022/10/02 15:07:06;;;;;;;7.60;7.20;;;;;;;;;;4997075;28;20679;-71
2022/10/02 15:09:50;;;;;;;7.90;7.50;;;;;;;;;;4999658;28;20050;-71
2022/10/02 15:12:42;;;;;;;7.70;7.30;;;;;;;;;;5000600;28;20039;-71
2022/10/02 15:15:40;;;;;;;7.22;6.90;;;;;;;;;;5000569;28;20338;-71
2022/10/02 15:18:09;;;;;;;8.50;8.00;;;;;;;;;;4938066;29;20047;-71
2022/10/02 15:20:51;;;;;;;7.43;7.03;;;;;;;;;;4939162;29;20126;-71
2022/10/02 15:23:40;;;;;;;8.10;7.70;;;;;;;;;;4932916;29;20515;-71
2022/10/02 15:26:20;;;;;;;7.85;7.45;;;;;;;;;;4935947;28;20208;-71
2022/10/02 15:29:06;;;;;;;7.50;7.10;;;;;;;;;;4938734;29;20058;-70
2022/10/02 15:32:03;;;;;;;7.43;7.03;;;;;;;;;;4934045;29;20532;-71
2022/10/02 15:34:45;;;;;;;7.40;7.00;;;;;;;;;;4938262;28;20051;-71
2022/10/02 15:37:59;;;;;;;7.07;6.78;;;;;;;;;;4933610;29;20467;-71
2022/10/02 15:40:38;;;;;;;7.60;7.20;;;;;;;;;;4934222;29;20405;-70
2022/10/02 15:43:53;;;;;;;7.40;7.00;;;;;;;;;;4937054;29;20122;-70
2022/10/02 15:46:36;;;;;;;7.68;7.28;;;;;;;;;;4907216;29;20056;-70
2022/10/02 15:49:07;;;;;;;7.70;7.30;;;;;;;;;;4907611;29;20048;-70
2022/10/02 15:51:52;;;;;;;7.63;7.22;;;;;;;;;;4904248;29;20119;-70
2022/10/02 15:54:37;;;;;;;7.65;7.25;;;;;;;;;;4931362;28;20050;-70
2022/10/02 15:57:21;;;;;;;7.68;7.28;;;;;;;;;;4964602;28;20039;-71
2022/10/02 16:00:15;;;;;;;7.57;7.18;;;;;;;;;;4963021;28;20041;-71
2022/10/02 16:03:10;;;;;;;7.95;7.55;;;;;;;;;;4963214;28;20074;-71
2022/10/02 16:05:44;;;;;;;7.53;7.13;;;;;;;;;;4961929;28;20407;-71
2022/10/02 16:08:26;;;;;;;8.00;7.60;;;;;;;;;;4962769;28;20130;-72
2022/10/02 16:11:17;;;;;;;7.03;6.72;;;;;;;;;;4964505;28;20050;-71
2022/10/02 16:14:12;;;;;;;7.63;7.22;;;;;;;;;;4962881;28;20073;-71
2022/10/02 16:17:15;;;;;;;7.03;6.72;;;;;;;;;;4962536;28;20049;-71
2022/10/02 16:19:56;;;;;;;7.07;6.78;;;;;;;;;;4963640;28;20078;-71
2022/10/02 16:22:40;;;;;;;6.80;6.50;;;;;;;;;;4974864;28;20053;-71
2022/10/02 16:25:12;;;;;;;7.25;6.88;;;;;;;;;;5002609;28;20169;-71
2022/10/02 16:28:03;;;;;;;6.75;6.45;;;;;;;;;;4995888;28;20037;-71
2022/10/02 16:30:38;;;;;;;7.05;6.75;;;;;;;;;;4999115;28;20444;-71